sensor_id;sensor_type;location;lat;lon;timestamp;P1;durP1;ratioP1;P2;durP2;ratioP2
41293;SDS011;27037;52.010;4.446;2024-02-16T00:00:53;7.20;;;4.47;;
41293;SDS011;27037;52.010;4.446;2024-02-16T00:03:19;8.15;;;4.20;;
41293;SDS011;27037;52.010;4.446;2024-02-16T00:05:45;10.52;;;4.95;;
41293;SDS011;27037;52.010;4.446;2024-02-16T00:08:11;9.50;;;4.40;;
41293;SDS011;27037;52.010;4.446;2024-02-16T00:10:38;8.82;;;4.55;;
41293;SDS011;27037;52.010;4.446;2024-02-16T00:13:03;9.70;;;4.65;;
41293;SDS011;27037;52.010;4.446;2024-02-16T00:15:29;8.23;;;4.90;;
41293;SDS011;27037;52.010;4.446;2024-02-16T00:17:55;8.43;;;4.68;;
41293;SDS011;27037;52.010;4.446;2024-02-16T00:20:20;8.38;;;4.28;;
41293;SDS011;27037;52.010;4.446;2024-02-16T00:22:47;7.25;;;4.35;;
41293;SDS011;27037;52.010;4.446;2024-02-16T00:25:13;7.38;;;4.45;;
41293;SDS011;27037;52.010;4.446;2024-02-16T00:27:40;7.82;;;4.43;;
41293;SDS011;27037;52.010;4.446;2024-02-16T00:30:06;7.93;;;4.88;;
41293;SDS011;27037;52.010;4.446;2024-02-16T00:32:32;7.78;;;4.80;;
41293;SDS011;27037;52.010;4.446;2024-02-16T00:34:58;10.40;;;5.03;;
41293;SDS011;27037;52.010;4.446;2024-02-16T00:37:23;9.27;;;4.53;;
41293;SDS011;27037;52.010;4.446;2024-02-16T00:39:49;9.35;;;4.53;;
41293;SDS011;27037;52.010;4.446;2024-02-16T00:42:15;6.63;;;4.55;;
41293;SDS011;27037;52.010;4.446;2024-02-16T00:44:40;7.65;;;4.38;;
41293;SDS011;27037;52.010;4.446;2024-02-16T00:47:06;6.97;;;4.68;;
41293;SDS011;27037;52.010;4.446;2024-02-16T00:49:32;9.93;;;4.50;;
41293;SDS011;27037;52.010;4.446;2024-02-16T00:51:58;8.68;;;4.80;;
41293;SDS011;27037;52.010;4.446;2024-02-16T00:54:24;8.40;;;5.15;;
41293;SDS011;27037;52.010;4.446;2024-02-16T00:56:50;9.23;;;4.65;;
41293;SDS011;27037;52.010;4.446;2024-02-16T00:59:15;8.32;;;5.07;;
41293;SDS011;27037;52.010;4.446;2024-02-16T01:01:41;8.00;;;5.22;;
41293;SDS011;27037;52.010;4.446;2024-02-16T01:04:07;7.80;;;4.53;;
41293;SDS011;27037;52.010;4.446;2024-02-16T01:06:33;10.68;;;5.00;;
41293;SDS011;27037;52.010;4.446;2024-02-16T01:08:59;10.73;;;5.18;;
41293;SDS011;27037;52.010;4.446;2024-02-16T01:11:24;10.38;;;4.90;;
41293;SDS011;27037;52.010;4.446;2024-02-16T01:13:51;8.40;;;5.10;;
41293;SDS011;27037;52.010;4.446;2024-02-16T01:16:17;9.32;;;4.82;;
41293;SDS011;27037;52.010;4.446;2024-02-16T01:18:43;10.75;;;4.65;;
41293;SDS011;27037;52.010;4.446;2024-02-16T01:21:09;7.05;;;4.65;;
41293;SDS011;27037;52.010;4.446;2024-02-16T01:23:35;8.50;;;4.93;;
41293;SDS011;27037;52.010;4.446;2024-02-16T01:26:01;8.32;;;5.20;;
41293;SDS011;27037;52.010;4.446;2024-02-16T01:28:26;8.45;;;4.22;;
41293;SDS011;27037;52.010;4.446;2024-02-16T01:30:52;7.75;;;4.70;;
41293;SDS011;27037;52.010;4.446;2024-02-16T01:33:19;8.48;;;4.90;;
41293;SDS011;27037;52.010;4.446;2024-02-16T01:35:45;7.85;;;4.68;;
41293;SDS011;27037;52.010;4.446;2024-02-16T01:38:11;7.55;;;4.72;;
41293;SDS011;27037;52.010;4.446;2024-02-16T01:40:37;8.13;;;4.90;;
41293;SDS011;27037;52.010;4.446;2024-02-16T01:43:02;9.95;;;4.90;;
41293;SDS011;27037;52.010;4.446;2024-02-16T01:45:28;9.80;;;5.35;;
41293;SDS011;27037;52.010;4.446;2024-02-16T01:47:53;9.60;;;5.10;;
41293;SDS011;27037;52.010;4.446;2024-02-16T01:50:19;8.45;;;4.93;;
41293;SDS011;27037;52.010;4.446;2024-02-16T01:52:47;11.52;;;5.30;;
41293;SDS011;27037;52.010;4.446;2024-02-16T01:55:13;10.70;;;4.85;;
41293;SDS011;27037;52.010;4.446;2024-02-16T01:57:40;11.20;;;5.20;;
41293;SDS011;27037;52.010;4.446;2024-02-16T02:00:08;11.63;;;5.55;;
41293;SDS011;27037;52.010;4.446;2024-02-16T02:02:34;9.55;;;5.03;;
41293;SDS011;27037;52.010;4.446;2024-02-16T02:05:00;12.05;;;5.60;;
41293;SDS011;27037;52.010;4.446;2024-02-16T02:07:26;8.77;;;5.18;;
41293;SDS011;27037;52.010;4.446;2024-02-16T02:09:52;7.38;;;4.78;;
41293;SDS011;27037;52.010;4.446;2024-02-16T02:12:19;9.85;;;5.70;;
41293;SDS011;27037;52.010;4.446;2024-02-16T02:14:44;9.20;;;5.13;;
41293;SDS011;27037;52.010;4.446;2024-02-16T02:17:11;10.02;;;5.50;;
41293;SDS011;27037;52.010;4.446;2024-02-16T02:19:37;8.10;;;5.00;;
41293;SDS011;27037;52.010;4.446;2024-02-16T02:22:03;8.88;;;5.13;;
41293;SDS011;27037;52.010;4.446;2024-02-16T02:24:28;7.22;;;4.85;;
41293;SDS011;27037;52.010;4.446;2024-02-16T02:26:54;10.68;;;5.47;;
41293;SDS011;27037;52.010;4.446;2024-02-16T02:29:20;10.68;;;5.55;;
41293;SDS011;27037;52.010;4.446;2024-02-16T02:31:45;9.73;;;5.05;;
41293;SDS011;27037;52.010;4.446;2024-02-16T02:34:11;8.57;;;5.45;;
41293;SDS011;27037;52.010;4.446;2024-02-16T02:36:37;11.35;;;5.15;;
41293;SDS011;27037;52.010;4.446;2024-02-16T02:39:02;10.70;;;5.00;;
41293;SDS011;27037;52.010;4.446;2024-02-16T02:41:28;8.00;;;4.97;;
41293;SDS011;27037;52.010;4.446;2024-02-16T02:43:53;9.60;;;4.72;;
41293;SDS011;27037;52.010;4.446;2024-02-16T02:46:19;9.45;;;4.88;;
41293;SDS011;27037;52.010;4.446;2024-02-16T02:48:48;7.53;;;4.40;;
41293;SDS011;27037;52.010;4.446;2024-02-16T02:51:15;9.48;;;5.13;;
41293;SDS011;27037;52.010;4.446;2024-02-16T02:53:40;9.93;;;4.50;;
41293;SDS011;27037;52.010;4.446;2024-02-16T02:56:06;7.75;;;4.78;;
41293;SDS011;27037;52.010;4.446;2024-02-16T02:58:32;8.90;;;4.53;;
41293;SDS011;27037;52.010;4.446;2024-02-16T03:00:58;8.25;;;4.85;;
41293;SDS011;27037;52.010;4.446;2024-02-16T03:03:24;8.82;;;4.47;;
41293;SDS011;27037;52.010;4.446;2024-02-16T03:05:49;9.40;;;4.80;;
41293;SDS011;27037;52.010;4.446;2024-02-16T03:08:15;9.48;;;4.38;;
41293;SDS011;27037;52.010;4.446;2024-02-16T03:10:41;10.07;;;4.82;;
41293;SDS011;27037;52.010;4.446;2024-02-16T03:13:07;8.82;;;4.60;;
41293;SDS011;27037;52.010;4.446;2024-02-16T03:15:33;7.75;;;4.60;;
41293;SDS011;27037;52.010;4.446;2024-02-16T03:18:00;8.02;;;4.53;;
41293;SDS011;27037;52.010;4.446;2024-02-16T03:20:26;8.43;;;4.43;;
41293;SDS011;27037;52.010;4.446;2024-02-16T03:22:52;8.57;;;4.53;;
41293;SDS011;27037;52.010;4.446;2024-02-16T03:25:17;7.55;;;4.53;;
41293;SDS011;27037;52.010;4.446;2024-02-16T03:27:43;7.68;;;4.68;;
41293;SDS011;27037;52.010;4.446;2024-02-16T03:30:09;6.28;;;4.18;;
41293;SDS011;27037;52.010;4.446;2024-02-16T03:32:35;9.80;;;4.65;;
41293;SDS011;27037;52.010;4.446;2024-02-16T03:35:01;9.75;;;4.70;;
41293;SDS011;27037;52.010;4.446;2024-02-16T03:37:27;10.77;;;4.90;;
41293;SDS011;27037;52.010;4.446;2024-02-16T03:39:52;10.00;;;5.03;;
41293;SDS011;27037;52.010;4.446;2024-02-16T03:42:18;8.55;;;4.43;;
41293;SDS011;27037;52.010;4.446;2024-02-16T03:44:44;10.55;;;5.07;;
41293;SDS011;27037;52.010;4.446;2024-02-16T03:47:10;8.45;;;4.70;;
41293;SDS011;27037;52.010;4.446;2024-02-16T03:49:37;8.85;;;4.65;;
41293;SDS011;27037;52.010;4.446;2024-02-16T03:52:04;8.70;;;4.93;;
41293;SDS011;27037;52.010;4.446;2024-02-16T03:54:29;8.32;;;5.10;;
41293;SDS011;27037;52.010;4.446;2024-02-16T03:56:56;10.68;;;4.65;;
41293;SDS011;27037;52.010;4.446;2024-02-16T03:59:23;9.13;;;4.88;;
41293;SDS011;27037;52.010;4.446;2024-02-16T04:01:49;7.93;;;4.97;;
41293;SDS011;27037;52.010;4.446;2024-02-16T04:04:15;8.40;;;4.63;;
41293;SDS011;27037;52.010;4.446;2024-02-16T04:06:41;8.38;;;4.55;;
41293;SDS011;27037;52.010;4.446;2024-02-16T04:09:06;7.85;;;4.75;;
41293;SDS011;27037;52.010;4.446;2024-02-16T04:11:32;7.43;;;4.78;;
41293;SDS011;27037;52.010;4.446;2024-02-16T04:13:59;11.48;;;5.15;;
41293;SDS011;27037;52.010;4.446;2024-02-16T04:16:24;8.75;;;4.85;;
41293;SDS011;27037;52.010;4.446;2024-02-16T04:18:50;12.23;;;5.00;;
41293;SDS011;27037;52.010;4.446;2024-02-16T04:21:18;8.90;;;4.82;;
41293;SDS011;27037;52.010;4.446;2024-02-16T04:23:44;8.98;;;4.95;;
41293;SDS011;27037;52.010;4.446;2024-02-16T04:26:09;7.50;;;4.97;;
41293;SDS011;27037;52.010;4.446;2024-02-16T04:28:35;10.32;;;5.30;;
41293;SDS011;27037;52.010;4.446;2024-02-16T04:31:01;8.93;;;4.60;;
41293;SDS011;27037;52.010;4.446;2024-02-16T04:33:27;8.60;;;4.75;;
41293;SDS011;27037;52.010;4.446;2024-02-16T04:35:52;10.80;;;4.95;;
41293;SDS011;27037;52.010;4.446;2024-02-16T04:38:18;6.32;;;4.22;;
41293;SDS011;27037;52.010;4.446;2024-02-16T04:40:44;8.48;;;4.70;;
41293;SDS011;27037;52.010;4.446;2024-02-16T04:43:10;8.65;;;5.20;;
41293;SDS011;27037;52.010;4.446;2024-02-16T04:45:36;9.10;;;5.47;;
41293;SDS011;27037;52.010;4.446;2024-02-16T04:48:02;7.70;;;4.95;;
41293;SDS011;27037;52.010;4.446;2024-02-16T04:50:30;11.90;;;5.38;;
41293;SDS011;27037;52.010;4.446;2024-02-16T04:52:56;9.90;;;5.35;;
41293;SDS011;27037;52.010;4.446;2024-02-16T04:55:22;9.75;;;5.13;;
41293;SDS011;27037;52.010;4.446;2024-02-16T04:57:48;11.40;;;5.53;;
41293;SDS011;27037;52.010;4.446;2024-02-16T05:00:13;9.40;;;5.20;;
41293;SDS011;27037;52.010;4.446;2024-02-16T05:02:39;10.93;;;4.78;;
41293;SDS011;27037;52.010;4.446;2024-02-16T05:05:05;9.13;;;5.18;;
41293;SDS011;27037;52.010;4.446;2024-02-16T05:07:30;10.18;;;5.18;;
41293;SDS011;27037;52.010;4.446;2024-02-16T05:09:56;9.52;;;5.57;;
41293;SDS011;27037;52.010;4.446;2024-02-16T05:12:23;8.68;;;4.93;;
41293;SDS011;27037;52.010;4.446;2024-02-16T05:14:49;9.60;;;5.10;;
41293;SDS011;27037;52.010;4.446;2024-02-16T05:17:15;12.68;;;5.60;;
41293;SDS011;27037;52.010;4.446;2024-02-16T05:19:41;9.77;;;5.30;;
41293;SDS011;27037;52.010;4.446;2024-02-16T05:22:07;9.18;;;5.60;;
41293;SDS011;27037;52.010;4.446;2024-02-16T05:24:32;10.70;;;5.32;;
41293;SDS011;27037;52.010;4.446;2024-02-16T05:26:58;9.65;;;5.05;;
41293;SDS011;27037;52.010;4.446;2024-02-16T05:29:24;11.48;;;5.45;;
41293;SDS011;27037;52.010;4.446;2024-02-16T05:31:51;10.63;;;5.65;;
41293;SDS011;27037;52.010;4.446;2024-02-16T05:34:17;11.73;;;5.38;;
41293;SDS011;27037;52.010;4.446;2024-02-16T05:36:43;9.02;;;5.15;;
41293;SDS011;27037;52.010;4.446;2024-02-16T05:39:09;9.68;;;5.80;;
41293;SDS011;27037;52.010;4.446;2024-02-16T05:41:45;10.15;;;5.57;;
41293;SDS011;27037;52.010;4.446;2024-02-16T05:44:11;10.55;;;6.10;;
41293;SDS011;27037;52.010;4.446;2024-02-16T05:46:37;12.57;;;5.65;;
41293;SDS011;27037;52.010;4.446;2024-02-16T05:49:03;10.75;;;5.10;;
41293;SDS011;27037;52.010;4.446;2024-02-16T05:51:36;9.45;;;5.45;;
41293;SDS011;27037;52.010;4.446;2024-02-16T05:54:05;10.27;;;5.50;;
41293;SDS011;27037;52.010;4.446;2024-02-16T05:56:33;11.68;;;5.57;;
41293;SDS011;27037;52.010;4.446;2024-02-16T05:58:59;11.38;;;6.30;;
41293;SDS011;27037;52.010;4.446;2024-02-16T06:01:25;13.73;;;5.80;;
41293;SDS011;27037;52.010;4.446;2024-02-16T06:03:52;13.32;;;5.90;;
41293;SDS011;27037;52.010;4.446;2024-02-16T06:06:18;10.77;;;5.35;;
41293;SDS011;27037;52.010;4.446;2024-02-16T06:08:44;9.65;;;5.63;;
41293;SDS011;27037;52.010;4.446;2024-02-16T06:11:09;11.38;;;5.90;;
41293;SDS011;27037;52.010;4.446;2024-02-16T06:13:35;12.05;;;6.30;;
41293;SDS011;27037;52.010;4.446;2024-02-16T06:16:01;11.18;;;5.72;;
41293;SDS011;27037;52.010;4.446;2024-02-16T06:18:29;11.48;;;5.72;;
41293;SDS011;27037;52.010;4.446;2024-02-16T06:20:55;11.50;;;5.72;;
41293;SDS011;27037;52.010;4.446;2024-02-16T06:23:20;9.70;;;5.60;;
41293;SDS011;27037;52.010;4.446;2024-02-16T06:25:46;10.65;;;5.65;;
41293;SDS011;27037;52.010;4.446;2024-02-16T06:28:11;9.52;;;5.68;;
41293;SDS011;27037;52.010;4.446;2024-02-16T06:30:37;10.27;;;5.50;;
41293;SDS011;27037;52.010;4.446;2024-02-16T06:33:03;8.80;;;5.50;;
41293;SDS011;27037;52.010;4.446;2024-02-16T06:35:29;9.13;;;5.88;;
41293;SDS011;27037;52.010;4.446;2024-02-16T06:37:55;11.98;;;5.68;;
41293;SDS011;27037;52.010;4.446;2024-02-16T06:40:20;12.73;;;5.80;;
41293;SDS011;27037;52.010;4.446;2024-02-16T06:42:46;12.30;;;5.70;;
41293;SDS011;27037;52.010;4.446;2024-02-16T06:45:11;13.05;;;6.53;;
41293;SDS011;27037;52.010;4.446;2024-02-16T06:47:37;9.57;;;5.88;;
41293;SDS011;27037;52.010;4.446;2024-02-16T06:50:03;9.23;;;5.65;;
41293;SDS011;27037;52.010;4.446;2024-02-16T06:52:28;9.85;;;5.80;;
41293;SDS011;27037;52.010;4.446;2024-02-16T06:54:54;10.32;;;6.00;;
41293;SDS011;27037;52.010;4.446;2024-02-16T06:57:20;11.30;;;5.45;;
41293;SDS011;27037;52.010;4.446;2024-02-16T06:59:45;10.60;;;6.03;;
41293;SDS011;27037;52.010;4.446;2024-02-16T07:02:11;10.88;;;6.10;;
41293;SDS011;27037;52.010;4.446;2024-02-16T07:04:41;10.63;;;6.05;;
41293;SDS011;27037;52.010;4.446;2024-02-16T07:07:06;11.55;;;6.35;;
41293;SDS011;27037;52.010;4.446;2024-02-16T07:09:33;15.07;;;6.47;;
41293;SDS011;27037;52.010;4.446;2024-02-16T07:11:58;11.48;;;6.43;;
41293;SDS011;27037;52.010;4.446;2024-02-16T07:14:24;12.48;;;5.75;;
41293;SDS011;27037;52.010;4.446;2024-02-16T07:16:50;11.13;;;6.03;;
41293;SDS011;27037;52.010;4.446;2024-02-16T07:19:15;9.27;;;5.85;;
41293;SDS011;27037;52.010;4.446;2024-02-16T07:21:41;12.15;;;6.35;;
41293;SDS011;27037;52.010;4.446;2024-02-16T07:24:06;15.25;;;5.57;;
41293;SDS011;27037;52.010;4.446;2024-02-16T07:26:33;12.38;;;5.75;;
41293;SDS011;27037;52.010;4.446;2024-02-16T07:28:59;12.98;;;5.82;;
41293;SDS011;27037;52.010;4.446;2024-02-16T07:31:24;9.63;;;5.97;;
41293;SDS011;27037;52.010;4.446;2024-02-16T07:33:50;11.60;;;5.78;;
41293;SDS011;27037;52.010;4.446;2024-02-16T07:36:15;12.38;;;6.30;;
41293;SDS011;27037;52.010;4.446;2024-02-16T07:38:43;10.55;;;6.25;;
41293;SDS011;27037;52.010;4.446;2024-02-16T07:41:09;11.27;;;5.60;;
41293;SDS011;27037;52.010;4.446;2024-02-16T07:43:35;10.25;;;6.03;;
41293;SDS011;27037;52.010;4.446;2024-02-16T07:46:00;15.98;;;6.38;;
41293;SDS011;27037;52.010;4.446;2024-02-16T07:48:28;11.70;;;5.65;;
41293;SDS011;27037;52.010;4.446;2024-02-16T07:50:54;18.58;;;6.97;;
41293;SDS011;27037;52.010;4.446;2024-02-16T07:53:22;10.55;;;6.28;;
41293;SDS011;27037;52.010;4.446;2024-02-16T07:55:48;13.65;;;6.63;;
41293;SDS011;27037;52.010;4.446;2024-02-16T07:58:14;15.02;;;6.32;;
41293;SDS011;27037;52.010;4.446;2024-02-16T08:00:39;9.55;;;5.93;;
41293;SDS011;27037;52.010;4.446;2024-02-16T08:03:05;11.95;;;6.50;;
41293;SDS011;27037;52.010;4.446;2024-02-16T08:05:31;9.52;;;6.15;;
41293;SDS011;27037;52.010;4.446;2024-02-16T08:07:57;13.60;;;6.22;;
41293;SDS011;27037;52.010;4.446;2024-02-16T08:10:22;12.93;;;6.35;;
41293;SDS011;27037;52.010;4.446;2024-02-16T08:12:50;11.13;;;6.38;;
41293;SDS011;27037;52.010;4.446;2024-02-16T08:15:15;10.90;;;6.32;;
41293;SDS011;27037;52.010;4.446;2024-02-16T08:17:47;12.05;;;6.55;;
41293;SDS011;27037;52.010;4.446;2024-02-16T08:20:13;10.43;;;6.35;;
41293;SDS011;27037;52.010;4.446;2024-02-16T08:22:39;11.10;;;6.40;;
41293;SDS011;27037;52.010;4.446;2024-02-16T08:25:06;11.35;;;6.75;;
41293;SDS011;27037;52.010;4.446;2024-02-16T08:27:32;10.95;;;6.38;;
41293;SDS011;27037;52.010;4.446;2024-02-16T08:29:57;10.95;;;6.35;;
41293;SDS011;27037;52.010;4.446;2024-02-16T08:32:23;12.90;;;6.88;;
41293;SDS011;27037;52.010;4.446;2024-02-16T08:34:48;11.50;;;6.28;;
41293;SDS011;27037;52.010;4.446;2024-02-16T08:37:15;9.13;;;6.15;;
41293;SDS011;27037;52.010;4.446;2024-02-16T08:39:41;9.60;;;6.40;;
41293;SDS011;27037;52.010;4.446;2024-02-16T08:42:06;13.25;;;6.70;;
41293;SDS011;27037;52.010;4.446;2024-02-16T08:44:36;9.73;;;5.88;;
41293;SDS011;27037;52.010;4.446;2024-02-16T08:47:03;13.80;;;6.70;;
41293;SDS011;27037;52.010;4.446;2024-02-16T08:49:29;10.27;;;6.45;;
41293;SDS011;27037;52.010;4.446;2024-02-16T08:51:55;17.13;;;7.18;;
41293;SDS011;27037;52.010;4.446;2024-02-16T08:54:21;12.35;;;6.53;;
41293;SDS011;27037;52.010;4.446;2024-02-16T08:56:47;10.68;;;6.95;;
41293;SDS011;27037;52.010;4.446;2024-02-16T08:59:13;13.00;;;6.60;;
41293;SDS011;27037;52.010;4.446;2024-02-16T09:01:39;13.80;;;6.72;;
41293;SDS011;27037;52.010;4.446;2024-02-16T09:04:05;13.85;;;6.85;;
41293;SDS011;27037;52.010;4.446;2024-02-16T09:06:31;11.57;;;7.25;;
41293;SDS011;27037;52.010;4.446;2024-02-16T09:08:56;15.77;;;7.05;;
41293;SDS011;27037;52.010;4.446;2024-02-16T09:11:23;16.58;;;7.70;;
41293;SDS011;27037;52.010;4.446;2024-02-16T09:13:48;16.50;;;7.97;;
41293;SDS011;27037;52.010;4.446;2024-02-16T09:16:15;15.18;;;8.45;;
41293;SDS011;27037;52.010;4.446;2024-02-16T09:18:40;17.27;;;7.60;;
41293;SDS011;27037;52.010;4.446;2024-02-16T09:21:06;16.65;;;8.15;;
41293;SDS011;27037;52.010;4.446;2024-02-16T09:23:32;20.15;;;8.82;;
41293;SDS011;27037;52.010;4.446;2024-02-16T09:25:59;19.40;;;8.70;;
41293;SDS011;27037;52.010;4.446;2024-02-16T09:28:25;17.02;;;8.52;;
41293;SDS011;27037;52.010;4.446;2024-02-16T09:30:51;18.92;;;8.48;;
41293;SDS011;27037;52.010;4.446;2024-02-16T09:33:17;20.52;;;9.95;;
41293;SDS011;27037;52.010;4.446;2024-02-16T09:35:42;20.27;;;11.10;;
41293;SDS011;27037;52.010;4.446;2024-02-16T09:38:08;29.55;;;11.55;;
41293;SDS011;27037;52.010;4.446;2024-02-16T09:40:35;31.92;;;11.98;;
41293;SDS011;27037;52.010;4.446;2024-02-16T09:43:02;31.08;;;13.23;;
41293;SDS011;27037;52.010;4.446;2024-02-16T09:45:28;39.95;;;14.85;;
41293;SDS011;27037;52.010;4.446;2024-02-16T09:47:55;37.90;;;14.68;;
41293;SDS011;27037;52.010;4.446;2024-02-16T09:50:22;35.80;;;14.82;;
41293;SDS011;27037;52.010;4.446;2024-02-16T09:52:48;44.03;;;15.73;;
41293;SDS011;27037;52.010;4.446;2024-02-16T09:55:15;41.83;;;15.80;;
41293;SDS011;27037;52.010;4.446;2024-02-16T09:57:42;37.70;;;15.52;;
41293;SDS011;27037;52.010;4.446;2024-02-16T10:00:11;36.45;;;15.05;;
41293;SDS011;27037;52.010;4.446;2024-02-16T10:02:43;32.83;;;14.55;;
41293;SDS011;27037;52.010;4.446;2024-02-16T10:05:16;35.75;;;14.55;;
41293;SDS011;27037;52.010;4.446;2024-02-16T10:07:43;32.47;;;13.68;;
41293;SDS011;27037;52.010;4.446;2024-02-16T10:10:21;31.25;;;14.40;;
41293;SDS011;27037;52.010;4.446;2024-02-16T10:12:48;30.70;;;13.82;;
41293;SDS011;27037;52.010;4.446;2024-02-16T10:15:20;24.33;;;13.07;;
41293;SDS011;27037;52.010;4.446;2024-02-16T10:17:59;28.45;;;12.68;;
41293;SDS011;27037;52.010;4.446;2024-02-16T10:20:25;28.67;;;12.25;;
41293;SDS011;27037;52.010;4.446;2024-02-16T10:23:10;31.63;;;12.85;;
41293;SDS011;27037;52.010;4.446;2024-02-16T10:25:36;27.55;;;12.57;;
41293;SDS011;27037;52.010;4.446;2024-02-16T10:28:08;28.23;;;12.73;;
41293;SDS011;27037;52.010;4.446;2024-02-16T10:30:36;23.13;;;12.23;;
41293;SDS011;27037;52.010;4.446;2024-02-16T10:33:06;25.20;;;12.80;;
41293;SDS011;27037;52.010;4.446;2024-02-16T10:35:34;20.15;;;11.38;;
41293;SDS011;27037;52.010;4.446;2024-02-16T10:38:06;22.23;;;11.30;;
41293;SDS011;27037;52.010;4.446;2024-02-16T10:40:38;21.10;;;10.15;;
41293;SDS011;27037;52.010;4.446;2024-02-16T10:43:05;23.23;;;10.98;;
41293;SDS011;27037;52.010;4.446;2024-02-16T10:45:33;17.92;;;10.82;;
41293;SDS011;27037;52.010;4.446;2024-02-16T10:48:00;22.17;;;11.05;;
41293;SDS011;27037;52.010;4.446;2024-02-16T10:50:31;23.52;;;11.18;;
41293;SDS011;27037;52.010;4.446;2024-02-16T10:53:02;21.20;;;10.57;;
41293;SDS011;27037;52.010;4.446;2024-02-16T10:55:34;21.70;;;11.57;;
41293;SDS011;27037;52.010;4.446;2024-02-16T10:58:00;22.17;;;11.13;;
41293;SDS011;27037;52.010;4.446;2024-02-16T11:00:26;22.20;;;10.75;;
41293;SDS011;27037;52.010;4.446;2024-02-16T11:02:52;19.25;;;10.02;;
41293;SDS011;27037;52.010;4.446;2024-02-16T11:05:18;19.15;;;10.00;;
41293;SDS011;27037;52.010;4.446;2024-02-16T11:07:44;18.38;;;9.50;;
41293;SDS011;27037;52.010;4.446;2024-02-16T11:10:11;15.23;;;9.00;;
41293;SDS011;27037;52.010;4.446;2024-02-16T11:12:38;17.23;;;8.55;;
41293;SDS011;27037;52.010;4.446;2024-02-16T11:15:11;11.82;;;7.97;;
41293;SDS011;27037;52.010;4.446;2024-02-16T11:17:38;15.60;;;8.00;;
41293;SDS011;27037;52.010;4.446;2024-02-16T11:20:06;14.57;;;8.00;;
41293;SDS011;27037;52.010;4.446;2024-02-16T11:22:32;17.60;;;8.43;;
41293;SDS011;27037;52.010;4.446;2024-02-16T11:25:04;15.20;;;7.80;;
41293;SDS011;27037;52.010;4.446;2024-02-16T11:27:31;13.77;;;7.32;;
41293;SDS011;27037;52.010;4.446;2024-02-16T11:29:58;12.95;;;7.60;;
41293;SDS011;27037;52.010;4.446;2024-02-16T11:32:25;13.32;;;7.80;;
41293;SDS011;27037;52.010;4.446;2024-02-16T11:34:51;18.45;;;7.53;;
41293;SDS011;27037;52.010;4.446;2024-02-16T11:37:16;15.23;;;7.18;;
41293;SDS011;27037;52.010;4.446;2024-02-16T11:39:42;13.13;;;7.22;;
41293;SDS011;27037;52.010;4.446;2024-02-16T11:42:11;12.80;;;6.85;;
41293;SDS011;27037;52.010;4.446;2024-02-16T11:44:38;12.88;;;7.15;;
41293;SDS011;27037;52.010;4.446;2024-02-16T11:47:05;13.00;;;6.60;;
41293;SDS011;27037;52.010;4.446;2024-02-16T11:49:37;14.15;;;6.82;;
41293;SDS011;27037;52.010;4.446;2024-02-16T11:52:06;14.70;;;7.00;;
41293;SDS011;27037;52.010;4.446;2024-02-16T11:54:32;11.82;;;6.70;;
41293;SDS011;27037;52.010;4.446;2024-02-16T11:56:58;13.65;;;5.72;;
41293;SDS011;27037;52.010;4.446;2024-02-16T11:59:24;15.35;;;6.57;;
41293;SDS011;27037;52.010;4.446;2024-02-16T12:01:54;9.10;;;5.60;;
41293;SDS011;27037;52.010;4.446;2024-02-16T12:04:24;12.00;;;5.18;;
41293;SDS011;27037;52.010;4.446;2024-02-16T12:07:00;8.60;;;5.10;;
41293;SDS011;27037;52.010;4.446;2024-02-16T12:09:26;12.32;;;5.30;;
41293;SDS011;27037;52.010;4.446;2024-02-16T12:11:53;8.60;;;4.97;;
41293;SDS011;27037;52.010;4.446;2024-02-16T12:14:23;7.60;;;5.00;;
41293;SDS011;27037;52.010;4.446;2024-02-16T12:16:54;12.10;;;5.60;;
41293;SDS011;27037;52.010;4.446;2024-02-16T12:19:22;10.98;;;5.70;;
41293;SDS011;27037;52.010;4.446;2024-02-16T12:21:51;12.80;;;5.90;;
41293;SDS011;27037;52.010;4.446;2024-02-16T12:24:18;11.00;;;5.97;;
41293;SDS011;27037;52.010;4.446;2024-02-16T12:26:44;12.88;;;6.60;;
41293;SDS011;27037;52.010;4.446;2024-02-16T12:29:10;12.10;;;6.43;;
41293;SDS011;27037;52.010;4.446;2024-02-16T12:31:42;13.98;;;7.45;;
41293;SDS011;27037;52.010;4.446;2024-02-16T12:34:10;14.00;;;7.80;;
41293;SDS011;27037;52.010;4.446;2024-02-16T12:36:36;18.60;;;8.50;;
41293;SDS011;27037;52.010;4.446;2024-02-16T12:39:05;15.57;;;8.30;;
41293;SDS011;27037;52.010;4.446;2024-02-16T12:41:31;17.98;;;8.32;;
41293;SDS011;27037;52.010;4.446;2024-02-16T12:44:00;17.17;;;8.40;;
41293;SDS011;27037;52.010;4.446;2024-02-16T12:46:26;14.80;;;7.53;;
41293;SDS011;27037;52.010;4.446;2024-02-16T12:48:53;15.15;;;8.35;;
41293;SDS011;27037;52.010;4.446;2024-02-16T12:51:19;14.35;;;8.57;;
41293;SDS011;27037;52.010;4.446;2024-02-16T12:53:45;12.20;;;7.70;;
41293;SDS011;27037;52.010;4.446;2024-02-16T12:56:11;11.68;;;7.43;;
41293;SDS011;27037;52.010;4.446;2024-02-16T12:58:36;13.95;;;7.53;;
41293;SDS011;27037;52.010;4.446;2024-02-16T13:01:02;15.38;;;7.25;;
41293;SDS011;27037;52.010;4.446;2024-02-16T13:03:31;13.63;;;7.45;;
41293;SDS011;27037;52.010;4.446;2024-02-16T13:06:01;14.25;;;7.22;;
41293;SDS011;27037;52.010;4.446;2024-02-16T13:08:27;12.23;;;7.45;;
41293;SDS011;27037;52.010;4.446;2024-02-16T13:10:53;12.18;;;8.00;;
41293;SDS011;27037;52.010;4.446;2024-02-16T13:13:19;14.57;;;8.00;;
41293;SDS011;27037;52.010;4.446;2024-02-16T13:15:48;11.75;;;7.90;;
41293;SDS011;27037;52.010;4.446;2024-02-16T13:18:14;13.73;;;7.40;;
41293;SDS011;27037;52.010;4.446;2024-02-16T13:20:40;11.90;;;7.05;;
41293;SDS011;27037;52.010;4.446;2024-02-16T13:23:06;15.25;;;7.68;;
41293;SDS011;27037;52.010;4.446;2024-02-16T13:25:32;11.93;;;7.88;;
41293;SDS011;27037;52.010;4.446;2024-02-16T13:27:57;14.07;;;8.18;;
41293;SDS011;27037;52.010;4.446;2024-02-16T13:30:24;15.98;;;8.38;;
41293;SDS011;27037;52.010;4.446;2024-02-16T13:32:50;13.65;;;8.23;;
41293;SDS011;27037;52.010;4.446;2024-02-16T13:35:16;12.48;;;7.57;;
41293;SDS011;27037;52.010;4.446;2024-02-16T13:37:41;12.23;;;7.10;;
41293;SDS011;27037;52.010;4.446;2024-02-16T13:40:09;15.27;;;7.85;;
41293;SDS011;27037;52.010;4.446;2024-02-16T13:42:40;11.75;;;7.53;;
41293;SDS011;27037;52.010;4.446;2024-02-16T13:45:09;13.38;;;7.03;;
41293;SDS011;27037;52.010;4.446;2024-02-16T13:47:36;13.57;;;7.10;;
41293;SDS011;27037;52.010;4.446;2024-02-16T13:50:04;12.43;;;7.65;;
41293;SDS011;27037;52.010;4.446;2024-02-16T13:52:34;13.50;;;7.40;;
41293;SDS011;27037;52.010;4.446;2024-02-16T13:55:00;10.25;;;7.40;;
41293;SDS011;27037;52.010;4.446;2024-02-16T13:57:26;12.20;;;7.70;;
41293;SDS011;27037;52.010;4.446;2024-02-16T13:59:52;13.93;;;8.55;;
41293;SDS011;27037;52.010;4.446;2024-02-16T14:02:18;14.25;;;7.57;;
41293;SDS011;27037;52.010;4.446;2024-02-16T14:04:44;17.38;;;8.13;;
41293;SDS011;27037;52.010;4.446;2024-02-16T14:07:11;12.20;;;8.10;;
41293;SDS011;27037;52.010;4.446;2024-02-16T14:09:37;11.40;;;7.28;;
41293;SDS011;27037;52.010;4.446;2024-02-16T14:12:02;11.90;;;7.25;;
41293;SDS011;27037;52.010;4.446;2024-02-16T14:14:28;13.27;;;7.97;;
41293;SDS011;27037;52.010;4.446;2024-02-16T14:16:54;14.23;;;7.05;;
41293;SDS011;27037;52.010;4.446;2024-02-16T14:19:20;14.95;;;6.90;;
41293;SDS011;27037;52.010;4.446;2024-02-16T14:21:45;12.93;;;6.95;;
41293;SDS011;27037;52.010;4.446;2024-02-16T14:24:12;11.98;;;6.63;;
41293;SDS011;27037;52.010;4.446;2024-02-16T14:26:38;14.70;;;6.40;;
41293;SDS011;27037;52.010;4.446;2024-02-16T14:29:05;11.45;;;6.70;;
41293;SDS011;27037;52.010;4.446;2024-02-16T14:31:31;10.02;;;6.13;;
41293;SDS011;27037;52.010;4.446;2024-02-16T14:33:58;11.23;;;6.18;;